Time;durP1;ratioP1;P1;durP2;ratioP2;P2;SDS_P1;SDS_P2;PMS_P1;PMS_P2;Temp;Humidity;BMP_temperature;BMP_pressure;BME280_temperature;BME280_humidity;BME280_pressure;Samples;Min_cycle;Max_cycle;Signal;HPM_P1;HPM_P2
2022/12/20 00:01:25;;;;;;;4.65;2.25;;;10.80;99.90;;;;;;4974668;28;20238;-86
2022/12/20 00:03:53;;;;;;;3.90;2.10;;;10.80;99.90;;;;;;4974131;28;20023;-86
2022/12/20 00:06:19;;;;;;;4.90;2.50;;;10.80;99.90;;;;;;4958140;28;20027;-86
2022/12/20 00:08:45;;;;;;;4.35;2.42;;;10.80;99.90;;;;;;4957329;28;20038;-86
2022/12/20 00:11:11;;;;;;;4.35;2.38;;;10.90;99.90;;;;;;4958075;28;20038;-87
2022/12/20 00:13:38;;;;;;;5.32;2.38;;;11.00;99.90;;;;;;4958072;28;20118;-86
2022/12/20 00:16:09;;;;;;;4.82;2.30;;;11.00;99.90;;;;;;4957909;28;20050;-85
2022/12/20 00:18:35;;;;;;;;;;;11.00;99.90;;;;;;4976646;28;20057;-88
2022/12/20 00:21:02;;;;;;;6.75;2.00;;;11.10;99.90;;;;;;4974531;28;19906;-89
2022/12/20 00:23:31;;;;;;;2.90;1.92;;;11.10;99.90;;;;;;4958668;28;20035;-88
2022/12/20 00:26:06;;;;;;;3.85;2.10;;;11.10;99.90;;;;;;4943243;28;20443;-88
2022/12/20 00:28:33;;;;;;;4.80;2.33;;;11.10;99.90;;;;;;4975842;28;20081;-87
2022/12/20 00:30:59;;;;;;;3.53;2.20;;;11.10;99.90;;;;;;4958563;28;20037;-88
2022/12/20 00:33:25;;;;;;;4.35;2.33;;;11.20;99.90;;;;;;4974287;28;20030;-88
2022/12/20 00:35:51;;;;;;;4.15;2.38;;;11.20;99.90;;;;;;4958158;28;20023;-88
2022/12/20 00:38:17;;;;;;;4.32;2.05;;;11.30;99.90;;;;;;4974076;28;20015;-88
2022/12/20 00:40:42;;;;;;;3.33;2.00;;;11.30;99.90;;;;;;4974157;28;20038;-88
2022/12/20 00:43:08;;;;;;;5.60;2.03;;;11.40;99.90;;;;;;4958053;28;20039;-88
2022/12/20 00:45:34;;;;;;;5.75;2.30;;;11.40;99.90;;;;;;4942033;28;20066;-87
2022/12/20 00:47:59;;;;;;;5.13;1.90;;;11.50;99.90;;;;;;4974001;28;20037;-88
2022/12/20 00:50:25;;;;;;;4.45;2.03;;;11.50;99.90;;;;;;4942197;28;20500;-89
2022/12/20 00:52:50;;;;;;;3.85;2.10;;;11.50;99.90;;;;;;4958520;28;20039;-90
2022/12/20 00:55:16;;;;;;;5.38;2.28;;;11.50;99.90;;;;;;4941773;28;20479;-88
2022/12/20 00:57:43;;;;;;;3.35;1.90;;;11.60;99.90;;;;;;4941626;28;20023;-86
2022/12/20 01:00:10;;;;;;;5.45;2.13;;;11.60;99.90;;;;;;4957611;28;20556;-86
2022/12/20 01:02:36;;;;;;;3.22;1.90;;;11.60;99.90;;;;;;4973576;28;20097;-87
2022/12/20 01:05:01;;;;;;;3.90;1.85;;;11.70;99.90;;;;;;4957546;28;20138;-86
2022/12/20 01:07:27;;;;;;;4.38;2.00;;;11.70;99.90;;;;;;4942150;28;20039;-90
2022/12/20 01:09:53;;;;;;;4.95;2.15;;;11.70;99.90;;;;;;4958350;28;20030;-90
2022/12/20 01:12:19;;;;;;;6.43;2.15;;;11.70;99.90;;;;;;4973009;28;20476;-89
2022/12/20 01:14:45;;;;;;;3.88;1.98;;;11.70;99.90;;;;;;4974243;28;20045;-90
2022/12/20 01:17:10;;;;;;;4.45;1.90;;;11.70;99.90;;;;;;4958139;28;20453;-90
2022/12/20 01:19:36;;;;;;;4.03;1.92;;;11.70;99.90;;;;;;4959433;28;20023;-90
2022/12/20 01:22:02;;;;;;;4.20;2.08;;;11.70;99.90;;;;;;4961886;28;20023;-89
2022/12/20 01:24:28;;;;;;;5.50;2.35;;;11.70;99.90;;;;;;4962042;28;20035;-88
2022/12/20 01:26:54;;;;;;;3.72;1.90;;;11.70;99.90;;;;;;4961435;28;20034;-87
2022/12/20 01:29:20;;;;;;;3.88;2.03;;;11.80;99.90;;;;;;4962344;28;20407;-88
2022/12/20 01:31:46;;;;;;;4.03;1.70;;;11.80;99.90;;;;;;4960998;28;20158;-87
2022/12/20 01:34:11;;;;;;;3.70;1.83;;;11.80;99.90;;;;;;4976981;28;20077;-88
2022/12/20 01:36:38;;;;;;;3.42;1.75;;;11.80;99.90;;;;;;4961100;28;20385;-87
2022/12/20 01:39:08;;;;;;;4.40;1.85;;;11.80;99.90;;;;;;4960926;28;20031;-87
2022/12/20 01:41:36;;;;;;;5.80;2.40;;;11.80;99.90;;;;;;4976986;28;20061;-85
2022/12/20 01:44:04;;;;;;;3.42;1.92;;;11.80;99.90;;;;;;4976700;28;20469;-86
2022/12/20 01:46:38;;;;;;;4.47;2.58;;;11.80;99.90;;;;;;4976594;28;20123;-86
2022/12/20 01:49:18;;;;;;;4.55;2.55;;;11.80;99.90;;;;;;4976575;28;20050;-86
2022/12/20 01:51:47;;;;;;;3.45;2.20;;;11.80;99.90;;;;;;4976514;28;20085;-86
2022/12/20 01:54:18;;;;;;;3.97;2.08;;;11.70;99.90;;;;;;4976420;28;20074;-85
2022/12/20 01:56:51;;;;;;;6.47;2.77;;;11.70;99.90;;;;;;4977991;28;20471;-86
2022/12/20 01:59:17;;;;;;;5.00;2.58;;;11.70;99.90;;;;;;4978104;28;20033;-85
2022/12/20 02:01:43;;;;;;;6.70;2.40;;;11.60;99.90;;;;;;4960660;28;20027;-85
2022/12/20 02:04:09;;;;;;;6.18;2.53;;;11.60;99.90;;;;;;4977785;28;20027;-86
2022/12/20 02:06:35;;;;;;;7.55;3.08;;;11.60;99.90;;;;;;4976485;28;20519;-86
2022/12/20 02:09:02;;;;;;;6.13;2.65;;;11.50;99.90;;;;;;4960450;28;20054;-86
2022/12/20 02:12:03;;;;;;;4.97;2.35;;;11.50;99.90;;;;;;4976760;28;20381;-87
2022/12/20 02:14:57;;;;;;;5.15;2.60;;;11.40;99.90;;;;;;4975594;28;20408;-92
2022/12/20 02:17:49;;;;;;;6.18;2.60;;;11.40;99.90;;;;;;4977522;28;20039;-92
2022/12/20 02:20:20;;;;;;;5.75;2.65;;;11.40;99.90;;;;;;4977368;28;20408;-91
2022/12/20 02:23:04;;;;;;;6.78;2.95;;;11.30;99.90;;;;;;4978231;28;20031;-92
2022/12/20 02:25:54;;;;;;;6.03;3.13;;;11.20;99.90;;;;;;4978489;28;20037;-93
2022/12/20 02:28:35;;;;;;;5.50;3.03;;;11.20;99.90;;;;;;4979088;28;20503;-91
2022/12/20 02:31:06;;;;;;;6.72;3.17;;;11.10;99.90;;;;;;4976270;28;20476;-88
2022/12/20 02:33:32;;;;;;;7.80;3.30;;;11.00;99.90;;;;;;4978418;28;20368;-88
2022/12/20 02:35:57;;;;;;;7.50;3.35;;;11.00;99.90;;;;;;4960170;28;20027;-87
2022/12/20 02:38:29;;;;;;;4.93;3.33;;;10.90;99.90;;;;;;4960255;28;20499;-88
2022/12/20 02:41:06;;;;;;;5.35;3.50;;;10.90;99.90;;;;;;4975955;28;20035;-87
2022/12/20 02:46:20;;;;;;;7.57;3.47;;;10.80;99.90;;;;;;4977574;28;20037;-87
2022/12/20 02:48:48;;;;;;;7.18;3.47;;;10.80;99.90;;;;;;4975667;28;20062;-85
2022/12/20 02:51:17;;;;;;;6.30;3.47;;;10.80;99.90;;;;;;4975354;28;20542;-84
2022/12/20 02:53:43;;;;;;;6.43;3.38;;;10.80;99.90;;;;;;4976785;28;20097;-84
2022/12/20 02:56:44;;;;;;;5.70;3.13;;;10.80;99.90;;;;;;4959317;28;20058;-85
2022/12/20 03:00:00;;;;;;;7.72;3.53;;;10.70;99.90;;;;;;4976400;28;20038;-84
2022/12/20 03:02:26;;;;;;;8.63;3.47;;;10.70;99.90;;;;;;4973506;28;20392;-85
2022/12/20 03:04:53;;;;;;;8.27;3.58;;;10.70;99.90;;;;;;4975938;28;20089;-88
2022/12/20 03:07:20;;;;;;;6.88;3.25;;;10.70;99.90;;;;;;4959897;28;20046;-88
2022/12/20 03:09:46;;;;;;;7.78;3.25;;;10.70;99.90;;;;;;4975926;28;20019;-88
2022/12/20 03:12:15;;;;;;;6.72;3.33;;;10.70;99.90;;;;;;4960083;28;20444;-87
2022/12/20 03:14:40;;;;;;;5.30;3.10;;;10.70;99.90;;;;;;4976962;28;20027;-87
2022/12/20 03:17:07;;;;;;;9.10;3.40;;;10.70;99.90;;;;;;4960683;28;20027;-87
2022/12/20 03:19:34;;;;;;;5.88;3.40;;;10.70;99.90;;;;;;4960320;28;20023;-87
2022/12/20 03:22:00;;;;;;;5.65;3.47;;;10.70;99.90;;;;;;4975953;28;20169;-88
2022/12/20 03:24:25;;;;;;;6.40;3.30;;;10.70;99.90;;;;;;4959606;28;20078;-88
2022/12/20 03:26:51;;;;;;;6.25;3.28;;;10.70;99.90;;;;;;4959189;28;20416;-88
2022/12/20 03:29:17;;;;;;;4.85;3.10;;;10.70;99.90;;;;;;4959149;28;20083;-88
2022/12/20 03:31:42;;;;;;;6.03;3.22;;;10.80;99.90;;;;;;4959592;28;20042;-88
2022/12/20 03:34:08;;;;;;;6.82;3.13;;;10.70;99.90;;;;;;4959330;28;20066;-88
2022/12/20 03:36:34;;;;;;;7.13;3.30;;;10.80;99.90;;;;;;4975760;28;20023;-85
2022/12/20 03:38:59;;;;;;;6.03;3.08;;;10.70;99.90;;;;;;4975803;28;20027;-85
2022/12/20 03:41:25;;;;;;;5.60;3.13;;;10.80;99.90;;;;;;4974266;28;20049;-85
2022/12/20 03:43:51;;;;;;;8.18;3.38;;;10.80;99.90;;;;;;4958342;28;20026;-85
2022/12/20 03:46:17;;;;;;;7.00;3.08;;;10.80;99.90;;;;;;4958445;28;20038;-85
2022/12/20 03:48:43;;;;;;;5.10;3.15;;;10.80;99.90;;;;;;4974605;28;20026;-87
2022/12/20 03:51:09;;;;;;;8.00;3.45;;;10.80;99.90;;;;;;4974617;28;20020;-88
2022/12/20 03:53:34;;;;;;;5.07;2.70;;;10.80;99.90;;;;;;4958946;28;20046;-91
2022/12/20 03:56:00;;;;;;;4.60;3.00;;;10.80;99.90;;;;;;4959644;28;20075;-92
2022/12/20 03:58:26;;;;;;;5.97;3.03;;;10.80;99.90;;;;;;4975878;28;20019;-92
2022/12/20 04:00:52;;;;;;;5.22;2.78;;;10.90;99.90;;;;;;4975709;28;20075;-91
2022/12/20 04:03:17;;;;;;;5.03;2.78;;;10.90;99.90;;;;;;4959449;28;20114;-92
2022/12/20 04:05:43;;;;;;;5.82;2.70;;;10.90;99.90;;;;;;4959751;28;20151;-92
2022/12/20 04:08:09;;;;;;;4.32;2.45;;;10.90;99.90;;;;;;4959594;28;20066;-91
2022/12/20 04:11:14;;;;;;;5.47;2.95;;;10.90;99.90;;;;;;4974820;28;20038;-85
2022/12/20 04:13:23;;;;;;;5.88;2.75;;;11.00;99.90;;;;;;4974181;28;20109;-85
2022/12/20 04:15:49;;;;;;;6.78;3.15;;;11.00;99.90;;;;;;4975146;28;20449;-85
2022/12/20 04:18:15;;;;;;;4.63;2.50;;;11.00;99.90;;;;;;4957821;28;20488;-85
2022/12/20 04:20:40;;;;;;;7.00;2.67;;;11.00;99.90;;;;;;4957783;28;20034;-85
2022/12/20 04:23:06;;;;;;;5.28;2.67;;;11.10;99.90;;;;;;4973854;28;20037;-85
2022/12/20 04:25:32;;;;;;;8.55;2.97;;;11.10;99.90;;;;;;4973763;28;20093;-85
2022/12/20 04:27:57;;;;;;;5.20;2.72;;;11.10;99.90;;;;;;4958710;28;20031;-88
2022/12/20 04:30:23;;;;;;;7.50;3.42;;;11.10;99.90;;;;;;4958823;28;20125;-88
2022/12/20 04:32:53;;;;;;;5.18;2.75;;;11.20;99.90;;;;;;4958891;28;20027;-88
2022/12/20 04:35:19;;;;;;;5.47;2.60;;;11.20;99.90;;;;;;4959485;28;20038;-88
2022/12/20 04:37:46;;;;;;;5.82;2.50;;;11.20;99.90;;;;;;4958983;28;20031;-88
2022/12/20 04:40:12;;;;;;;7.38;2.75;;;11.20;99.90;;;;;;4959501;28;20038;-89
2022/12/20 04:42:38;;;;;;;6.65;2.70;;;11.30;99.90;;;;;;4974654;28;20051;-88
2022/12/20 04:45:04;;;;;;;8.52;2.28;;;11.30;99.90;;;;;;4958520;28;20141;-88
2022/12/20 04:47:30;;;;;;;4.20;2.42;;;11.30;99.90;;;;;;4958344;28;20026;-88
2022/12/20 04:56:02;;;;;;;7.35;2.22;;;11.40;99.90;;;;;;4980108;28;20089;-88
2022/12/20 04:58:28;;;;;;;8.45;2.08;;;11.40;99.90;;;;;;4962054;28;20030;-88
2022/12/20 05:00:54;;;;;;;4.90;2.30;;;11.50;99.90;;;;;;4962246;28;20483;-87
2022/12/20 05:03:21;;;;;;;6.10;2.40;;;11.50;99.90;;;;;;4977766;28;20027;-87
2022/12/20 05:05:47;;;;;;;5.47;2.47;;;11.50;99.90;;;;;;4978101;28;20506;-88
2022/12/20 05:08:13;;;;;;;4.25;2.40;;;11.50;99.90;;;;;;4977714;28;20058;-87
2022/12/20 05:10:40;;;;;;;6.30;2.40;;;11.50;99.90;;;;;;4977815;28;20031;-87
2022/12/20 05:13:06;;;;;;;6.88;2.30;;;11.50;99.90;;;;;;4977954;28;20121;-88
2022/12/20 05:15:33;;;;;;;4.47;2.10;;;11.50;99.90;;;;;;4978202;28;20383;-87
2022/12/20 05:17:59;;;;;;;5.78;2.47;;;11.50;99.90;;;;;;4981978;28;20026;-91
2022/12/20 05:20:34;;;;;;;5.25;2.50;;;11.60;99.90;;;;;;4969359;28;20037;-92
2022/12/20 05:28:32;;;;;;;5.60;2.60;;;11.60;99.90;;;;;;4979827;28;20034;-88
2022/12/20 05:30:59;;;;;;;5.38;2.35;;;11.70;99.90;;;;;;4978473;28;20476;-88
2022/12/20 05:33:25;;;;;;;7.00;2.85;;;11.60;99.90;;;;;;4978462;28;20026;-85
2022/12/20 05:35:51;;;;;;;5.28;2.83;;;11.60;99.90;;;;;;4976961;28;20058;-85
2022/12/20 05:38:16;;;;;;;4.93;2.35;;;11.60;99.90;;;;;;4961131;28;20081;-85
2022/12/20 05:40:42;;;;;;;7.20;2.25;;;11.60;99.90;;;;;;4977117;28;20078;-85
2022/12/20 05:43:08;;;;;;;5.55;2.67;;;11.60;99.90;;;;;;4960842;28;20023;-85
2022/12/20 05:45:34;;;;;;;10.32;2.70;;;11.60;99.90;;;;;;4961155;28;20022;-85
2022/12/20 05:48:00;;;;;;;5.10;2.50;;;11.60;99.90;;;;;;4961122;28;20057;-85
2022/12/20 05:50:26;;;;;;;6.80;2.92;;;11.60;99.90;;;;;;4977220;28;20428;-89
2022/12/20 05:52:52;;;;;;;9.77;2.67;;;11.50;99.90;;;;;;4961973;28;20093;-89
2022/12/20 05:55:17;;;;;;;6.05;2.53;;;11.50;99.90;;;;;;4962241;28;20035;-89
2022/12/20 05:57:43;;;;;;;6.25;2.70;;;11.50;99.90;;;;;;4961962;28;20027;-89
2022/12/20 06:00:10;;;;;;;8.75;3.45;;;11.50;99.90;;;;;;4977965;28;20361;-89
2022/12/20 06:02:36;;;;;;;6.60;2.83;;;11.50;99.90;;;;;;4977380;28;20419;-89
2022/12/20 06:05:02;;;;;;;4.32;2.67;;;11.50;99.90;;;;;;4981420;28;20081;-89
2022/12/20 06:07:28;;;;;;;5.10;2.60;;;11.50;99.90;;;;;;4980600;28;20530;-86
2022/12/20 06:09:55;;;;;;;6.88;2.80;;;11.50;99.90;;;;;;4979672;28;20146;-86
2022/12/20 06:12:20;;;;;;;6.22;2.78;;;11.40;99.90;;;;;;4992310;28;20484;-86
2022/12/20 06:14:46;;;;;;;4.75;2.17;;;11.40;99.90;;;;;;4989013;28;20054;-87
2022/12/20 06:17:12;;;;;;;5.13;2.40;;;11.40;99.90;;;;;;4980509;28;20431;-86
2022/12/20 06:19:41;;;;;;;4.18;2.20;;;11.40;99.90;;;;;;4976819;28;20039;-86
2022/12/20 06:22:08;;;;;;;8.05;2.78;;;11.40;99.90;;;;;;4944893;28;20480;-83
2022/12/20 06:24:34;;;;;;;4.82;2.50;;;11.40;99.90;;;;;;4978043;28;20485;-89
2022/12/20 06:27:01;;;;;;;8.90;2.85;;;11.40;99.90;;;;;;4979358;28;20023;-89
2022/12/20 06:29:26;;;;;;;3.67;2.25;;;11.40;99.90;;;;;;4995426;28;20026;-89
2022/12/20 06:31:52;;;;;;;4.60;2.13;;;11.40;99.90;;;;;;4996754;28;20029;-89
2022/12/20 06:34:18;;;;;;;7.78;2.65;;;11.50;99.90;;;;;;4980758;28;20034;-89
2022/12/20 06:36:44;;;;;;;5.10;2.40;;;11.50;99.90;;;;;;4996732;28;20111;-88
2022/12/20 06:39:10;;;;;;;4.88;2.10;;;11.40;99.90;;;;;;4979627;28;20035;-87
2022/12/20 06:41:36;;;;;;;5.28;2.35;;;11.50;99.90;;;;;;4979825;28;20050;-92
2022/12/20 06:44:02;;;;;;;4.38;2.15;;;11.50;99.90;;;;;;4980736;28;20030;-91
2022/12/20 06:46:28;;;;;;;5.60;2.58;;;11.50;99.90;;;;;;4997095;28;20034;-93
2022/12/20 06:49:31;;;;;;;4.63;2.15;;;11.50;99.90;;;;;;4980731;28;20030;-92
2022/12/20 06:51:57;;;;;;;3.55;2.28;;;11.60;99.90;;;;;;4996541;28;20034;-91
2022/12/20 06:54:22;;;;;;;6.53;2.25;;;11.60;99.90;;;;;;4999319;23;20051;-87
2022/12/20 06:56:48;;;;;;;5.20;2.08;;;11.50;99.90;;;;;;4975875;28;20496;-88
2022/12/20 06:59:14;;;;;;;5.57;1.98;;;11.60;99.90;;;;;;4959858;28;20030;-88
2022/12/20 07:01:40;;;;;;;3.50;1.92;;;11.60;99.90;;;;;;4976258;28;20055;-89
2022/12/20 07:04:05;;;;;;;4.28;2.20;;;11.60;99.90;;;;;;4976548;28;20046;-89
2022/12/20 07:06:31;;;;;;;3.30;1.88;;;11.60;99.90;;;;;;4961254;28;20035;-88
2022/12/20 07:08:57;;;;;;;7.80;2.10;;;11.60;99.90;;;;;;4977124;28;20022;-88
2022/12/20 07:11:22;;;;;;;4.07;2.00;;;11.60;99.90;;;;;;4960357;28;20027;-88
2022/12/20 07:13:49;;;;;;;4.40;2.20;;;11.60;99.90;;;;;;4961016;28;20114;-89
2022/12/20 07:16:15;;;;;;;5.22;2.17;;;11.60;99.90;;;;;;4976242;28;20038;-88
2022/12/20 07:18:44;;;;;;;4.00;2.30;;;11.60;99.90;;;;;;4964017;28;20023;-88
2022/12/20 07:21:10;;;;;;;6.47;2.17;;;11.60;99.90;;;;;;4967984;28;20029;-88
2022/12/20 07:23:45;;;;;;;6.25;2.08;;;11.60;99.90;;;;;;4963959;28;20035;-88
2022/12/20 07:26:12;;;;;;;4.57;2.17;;;11.60;99.90;;;;;;4981792;28;20033;-88
2022/12/20 07:28:41;;;;;;;5.97;2.63;;;11.60;99.90;;;;;;4968191;28;20038;-88
2022/12/20 07:31:07;;;;;;;4.70;2.20;;;11.60;99.90;;;;;;4981089;28;20095;-86
2022/12/20 07:33:33;;;;;;;3.35;1.80;;;11.60;99.90;;;;;;4979487;28;20034;-85
2022/12/20 07:36:05;;;;;;;5.70;1.95;;;11.60;99.90;;;;;;4975919;28;20039;-86
2022/12/20 07:38:31;;;;;;;5.68;2.28;;;11.60;99.90;;;;;;4974993;28;20023;-86
2022/12/20 07:40:57;;;;;;;3.90;2.10;;;11.70;99.90;;;;;;4958906;28;20050;-86
2022/12/20 07:43:22;;;;;;;4.60;2.20;;;11.70;99.90;;;;;;4975404;28;20031;-86
2022/12/20 07:45:52;;;;;;;4.20;2.13;;;11.70;99.90;;;;;;4958809;28;20027;-86
2022/12/20 07:48:18;;;;;;;5.13;2.05;;;11.70;99.90;;;;;;4959431;28;20027;-88
2022/12/20 07:50:43;;;;;;;4.30;2.42;;;11.70;99.90;;;;;;4974918;28;20027;-87
2022/12/20 07:53:10;;;;;;;5.13;2.00;;;11.70;99.90;;;;;;4974681;28;20034;-87
2022/12/20 07:55:38;;;;;;;5.65;2.50;;;11.70;99.90;;;;;;4958794;28;20397;-88
2022/12/20 07:58:08;;;;;;;6.85;2.70;;;11.80;99.90;;;;;;4975942;28;20089;-87
2022/12/20 08:00:36;;;;;;;6.82;2.28;;;11.80;99.90;;;;;;4986377;28;20093;-88
2022/12/20 08:03:09;;;;;;;6.78;2.17;;;11.80;99.90;;;;;;4989712;28;20495;-88
2022/12/20 08:05:38;;;;;;;4.82;2.25;;;11.80;99.90;;;;;;4994635;28;20037;-91
2022/12/20 08:08:05;;;;;;;4.45;2.38;;;11.80;99.90;;;;;;4992700;28;20069;-91
2022/12/20 08:10:30;;;;;;;5.25;1.88;;;11.90;99.90;;;;;;4974637;28;20058;-90
2022/12/20 08:12:58;;;;;;;5.05;1.80;;;11.90;99.90;;;;;;4990301;28;20026;-90
2022/12/20 08:15:24;;;;;;;4.90;2.63;;;11.90;99.90;;;;;;4995065;28;20034;-91
2022/12/20 08:17:50;;;;;;;5.30;1.92;;;11.90;99.90;;;;;;4970119;28;20035;-91
2022/12/20 08:20:16;;;;;;;3.90;2.30;;;11.90;99.90;;;;;;4974255;28;20166;-85
2022/12/20 08:22:42;;;;;;;5.45;2.20;;;11.90;99.90;;;;;;4988696;28;20027;-85
2022/12/20 08:25:08;;;;;;;5.25;1.90;;;11.90;99.90;;;;;;4993040;28;20036;-85
2022/12/20 08:27:34;;;;;;;5.50;2.53;;;11.90;99.90;;;;;;4986428;28;20538;-85
2022/12/20 08:29:59;;;;;;;5.88;2.55;;;11.80;99.90;;;;;;4976276;28;20031;-86
2022/12/20 08:32:25;;;;;;;4.93;2.50;;;11.80;99.90;;;;;;4992560;28;20523;-85
2022/12/20 08:34:51;;;;;;;4.63;2.25;;;11.80;99.90;;;;;;4976477;28;20031;-84
2022/12/20 08:37:17;;;;;;;4.13;1.88;;;11.80;99.90;;;;;;4972666;28;20027;-86
2022/12/20 08:39:43;;;;;;;4.32;2.15;;;11.70;99.90;;;;;;4993251;28;20038;-87
2022/12/20 08:42:10;;;;;;;5.82;2.33;;;11.70;99.90;;;;;;4976633;28;20360;-84
2022/12/20 08:44:36;;;;;;;3.75;2.13;;;11.70;99.90;;;;;;4993577;28;20134;-85
2022/12/20 08:47:02;;;;;;;7.22;2.15;;;11.70;99.90;;;;;;4987487;28;20092;-85
2022/12/20 08:49:27;;;;;;;4.07;2.00;;;11.70;99.90;;;;;;4980262;28;20031;-85
2022/12/20 08:51:53;;;;;;;7.63;2.28;;;11.70;99.90;;;;;;4992485;28;20376;-84
2022/12/20 08:54:20;;;;;;;6.35;1.85;;;11.70;99.90;;;;;;4968276;28;20047;-83
2022/12/20 08:56:46;;;;;;;5.43;1.90;;;11.80;99.90;;;;;;4971801;28;20116;-83
2022/12/20 08:59:12;;;;;;;3.25;1.80;;;11.80;99.90;;;;;;4964416;28;20065;-83
2022/12/20 09:01:39;;;;;;;5.38;2.13;;;11.80;99.90;;;;;;4990871;28;20027;-83
2022/12/20 09:04:04;;;;;;;5.47;2.15;;;11.70;99.90;;;;;;4972029;28;20038;-83
2022/12/20 09:06:30;;;;;;;3.88;2.10;;;11.70;99.90;;;;;;4989852;28;20026;-83
2022/12/20 09:08:59;;;;;;;5.72;2.35;;;11.70;99.90;;;;;;4976144;28;20030;-83
2022/12/20 09:11:25;;;;;;;6.57;2.55;;;11.60;99.90;;;;;;4984657;28;20023;-85
2022/12/20 09:13:53;;;;;;;5.80;2.50;;;11.60;99.90;;;;;;4989192;28;20535;-85
2022/12/20 09:16:22;;;;;;;6.22;2.58;;;11.60;99.90;;;;;;4984830;28;20033;-85
2022/12/20 09:18:54;;;;;;;7.57;2.75;;;11.50;99.90;;;;;;4992383;28;20065;-86
2022/12/20 09:21:27;;;;;;;5.78;2.33;;;11.50;99.90;;;;;;4988514;28;20022;-86
2022/12/20 09:24:10;;;;;;;6.20;2.60;;;11.40;99.90;;;;;;4983311;28;20041;-87
2022/12/20 09:26:35;;;;;;;9.57;2.80;;;11.40;99.90;;;;;;4968916;28;20041;-85
2022/12/20 09:29:02;;;;;;;10.60;2.70;;;11.40;99.90;;;;;;4990706;28;20399;-86
2022/12/20 09:31:28;;;;;;;7.90;2.55;;;11.40;99.90;;;;;;4987893;28;20062;-86
2022/12/20 09:33:55;;;;;;;5.68;2.38;;;11.30;99.90;;;;;;4962038;28;20031;-86
2022/12/20 09:36:22;;;;;;;9.77;2.80;;;11.30;99.90;;;;;;4979448;28;20114;-86
2022/12/20 09:38:48;;;;;;;8.77;2.80;;;11.30;99.90;;;;;;4987941;28;20068;-86
2022/12/20 09:41:28;;;;;;;4.18;2.28;;;11.20;99.90;;;;;;4987896;28;20438;-85
2022/12/20 09:43:54;;;;;;;4.47;2.42;;;11.20;99.90;;;;;;4995634;28;20411;-83
2022/12/20 09:46:22;;;;;;;5.72;2.30;;;11.20;99.90;;;;;;4988629;28;20031;-82
2022/12/20 09:48:48;;;;;;;6.35;3.28;;;11.20;99.90;;;;;;4975267;28;20384;-83
2022/12/20 09:51:16;;;;;;;8.90;2.55;;;11.20;99.90;;;;;;4979301;28;20081;-83
2022/12/20 09:54:13;;;;;;;5.68;2.30;;;11.10;99.90;;;;;;4991402;28;20026;-83
2022/12/20 09:56:45;;;;;;;6.78;2.67;;;11.20;99.90;;;;;;4987794;28;20085;-83
2022/12/20 09:59:14;;;;;;;7.68;2.63;;;11.10;99.90;;;;;;4991970;28;20473;-83
2022/12/20 10:01:45;;;;;;;8.32;2.70;;;11.10;99.90;;;;;;4990407;28;20021;-83
2022/12/20 10:04:24;;;;;;;;;;;11.20;99.90;;;;;;4996850;28;20019;-83
2022/12/20 10:06:50;;;;;;;7.97;2.47;;;11.10;99.90;;;;;;4995737;28;19906;-83
2022/12/20 10:13:02;;;;;;;5.82;2.50;;;11.10;99.90;;;;;;4989588;28;20061;-83
2022/12/20 10:15:45;;;;;;;8.27;2.60;;;11.10;99.90;;;;;;4994861;28;20026;-83
2022/12/20 10:18:40;;;;;;;5.32;2.45;;;11.10;99.90;;;;;;4992610;28;20093;-83
2022/12/20 10:21:21;;;;;;;7.65;2.70;;;11.20;99.90;;;;;;4989160;28;20487;-83
2022/12/20 10:24:02;;;;;;;;;;;11.10;99.90;;;;;;4994647;28;20058;-90
2022/12/20 10:26:29;;;;;;;;;;;11.20;99.90;;;;;;4992946;28;19905;-89
2022/12/20 10:28:55;;;;;;;9.93;3.70;;;11.10;99.90;;;;;;4991675;28;19913;-88
2022/12/20 10:31:21;;;;;;;8.80;3.17;;;11.10;99.90;;;;;;4977816;28;20152;-89
2022/12/20 10:33:46;;;;;;;4.75;3.10;;;11.10;99.90;;;;;;4989522;28;20029;-86
2022/12/20 10:36:30;;;;;;;9.50;3.38;;;11.10;99.90;;;;;;4974189;28;20039;-87
2022/12/20 10:39:05;;;;;;;7.30;3.00;;;11.10;99.90;;;;;;4988803;28;20045;-86
2022/12/20 10:41:47;;;;;;;6.80;3.53;;;11.10;99.90;;;;;;4987734;28;20109;-87
2022/12/20 10:44:27;;;;;;;8.18;3.60;;;11.10;99.90;;;;;;4985521;28;20053;-86
2022/12/20 10:46:57;;;;;;;11.18;3.42;;;11.10;99.90;;;;;;4993339;28;20026;-86
2022/12/20 10:49:28;;;;;;;7.10;3.70;;;11.10;99.90;;;;;;4986651;28;20519;-87
2022/12/20 10:52:17;;;;;;;6.80;3.10;;;11.10;99.90;;;;;;4983998;28;20395;-84
2022/12/20 10:54:44;;;;;;;8.63;3.60;;;11.10;99.90;;;;;;4994222;28;20073;-84
2022/12/20 10:57:24;;;;;;;6.57;3.65;;;11.10;99.90;;;;;;4977438;28;20022;-85
2022/12/20 11:00:02;;;;;;;6.85;3.42;;;11.10;99.90;;;;;;4990336;28;20046;-84
2022/12/20 11:02:34;;;;;;;9.00;3.47;;;11.20;99.90;;;;;;4994647;28;20034;-84
2022/12/20 11:05:13;;;;;;;12.45;3.92;;;11.10;99.90;;;;;;4994080;28;20026;-85
2022/12/20 11:07:52;;;;;;;7.45;3.25;;;11.20;99.90;;;;;;4990684;28;20039;-90
2022/12/20 11:10:25;;;;;;;6.97;3.63;;;11.20;99.90;;;;;;4995519;28;20031;-90
2022/12/20 11:13:02;;;;;;;7.80;3.63;;;11.20;99.90;;;;;;4995878;28;20023;-90
2022/12/20 11:15:31;;;;;;;9.63;3.60;;;11.20;99.90;;;;;;4993666;28;20034;-90
2022/12/20 11:18:08;;;;;;;11.25;3.53;;;11.10;99.90;;;;;;4988909;28;20023;-90
2022/12/20 11:20:36;;;;;;;9.93;3.58;;;11.20;99.90;;;;;;4995073;28;20030;-90
2022/12/20 11:23:19;;;;;;;11.63;3.60;;;11.20;99.90;;;;;;4997006;28;20096;-90
2022/12/20 11:26:08;;;;;;;10.05;3.65;;;11.20;99.90;;;;;;4986659;28;20022;-86
2022/12/20 11:28:52;;;;;;;6.70;3.50;;;11.20;99.90;;;;;;4990668;28;20030;-87
2022/12/20 11:31:36;;;;;;;7.03;3.50;;;11.20;99.90;;;;;;4983138;28;20037;-86
2022/12/20 11:34:09;;;;;;;9.07;3.65;;;11.20;99.90;;;;;;4994456;28;20026;-85
2022/12/20 11:36:50;;;;;;;6.95;3.58;;;11.20;99.90;;;;;;4986890;28;20031;-86
2022/12/20 11:39:30;;;;;;;6.30;3.13;;;11.20;99.90;;;;;;4988582;28;20058;-87
2022/12/20 11:42:19;;;;;;;5.63;3.40;;;11.20;99.90;;;;;;4990912;28;20463;-90
2022/12/20 11:44:55;;;;;;;12.25;3.60;;;11.20;99.90;;;;;;4984686;28;20491;-91
2022/12/20 11:47:47;;;;;;;6.78;3.90;;;11.30;99.90;;;;;;4990336;28;20030;-89
2022/12/20 11:50:22;;;;;;;6.90;3.55;;;11.30;99.90;;;;;;4991195;28;20031;-90
2022/12/20 11:52:57;;;;;;;8.10;3.90;;;11.30;99.90;;;;;;4969985;28;20023;-90
2022/12/20 11:55:30;;;;;;;8.38;4.10;;;11.30;99.90;;;;;;4977682;28;20046;-90
2022/12/20 11:58:00;;;;;;;10.02;4.15;;;11.30;99.90;;;;;;4988195;28;20033;-87
2022/12/20 12:00:26;;;;;;;7.63;3.55;;;11.30;99.90;;;;;;4981665;28;20113;-86
2022/12/20 12:02:56;;;;;;;8.10;3.47;;;11.30;99.90;;;;;;4989551;28;20068;-86
2022/12/20 12:05:39;;;;;;;8.18;3.47;;;11.30;99.90;;;;;;4988275;28;20114;-87
2022/12/20 12:08:15;;;;;;;8.90;4.05;;;11.30;99.90;;;;;;4989425;28;20480;-86
2022/12/20 12:10:55;;;;;;;6.28;3.60;;;11.40;99.90;;;;;;4991201;28;20126;-87
2022/12/20 12:13:25;;;;;;;9.90;4.03;;;11.30;99.90;;;;;;4990253;28;20031;-85
2022/12/20 12:16:00;;;;;;;8.27;3.70;;;11.40;99.90;;;;;;4984495;28;20022;-84
2022/12/20 12:18:32;;;;;;;7.35;3.55;;;11.40;99.90;;;;;;4990459;28;20089;-84
2022/12/20 12:21:04;;;;;;;7.70;3.78;;;11.40;99.90;;;;;;4989011;28;20026;-85
2022/12/20 12:23:57;;;;;;;7.30;4.07;;;11.40;99.90;;;;;;4989740;28;20469;-85
2022/12/20 12:26:34;;;;;;;9.65;4.13;;;11.40;99.90;;;;;;4984727;28;20026;-84
2022/12/20 12:29:03;;;;;;;8.73;4.20;;;11.40;99.90;;;;;;4978691;28;20030;-85
2022/12/20 12:32:16;;;;;;;10.93;4.18;;;11.40;99.90;;;;;;4976228;28;20042;-85
2022/12/20 12:34:59;;;;;;;8.45;4.00;;;11.40;99.90;;;;;;4967910;28;20030;-85
2022/12/20 12:37:48;;;;;;;6.13;3.72;;;11.40;99.90;;;;;;4974199;28;20041;-84
2022/12/20 12:40:29;;;;;;;10.13;4.20;;;11.40;99.90;;;;;;4980252;28;20105;-84
2022/12/20 12:43:28;;;;;;;7.00;3.92;;;11.40;99.90;;;;;;4981033;28;20169;-85
2022/12/20 12:45:59;;;;;;;10.80;4.72;;;11.40;99.90;;;;;;4980490;28;20015;-85
2022/12/20 12:48:51;;;;;;;10.05;4.97;;;11.40;99.90;;;;;;4975321;28;20027;-90
2022/12/20 12:51:25;;;;;;;8.30;5.07;;;11.40;99.90;;;;;;4957773;28;20496;-89
2022/12/20 12:53:53;;;;;;;9.52;4.88;;;11.40;99.90;;;;;;4974146;28;20027;-90
2022/12/20 12:56:25;;;;;;;7.82;4.15;;;11.40;99.90;;;;;;4969142;28;20058;-90
2022/12/20 12:59:05;;;;;;;11.35;4.90;;;11.40;99.90;;;;;;4979156;28;20077;-90
2022/12/20 13:02:03;;;;;;;10.05;4.45;;;11.40;99.90;;;;;;4974564;28;20113;-90
2022/12/20 13:04:50;;;;;;;9.38;4.55;;;11.40;99.90;;;;;;4974583;28;20031;-84
2022/12/20 13:07:38;;;;;;;9.93;4.82;;;11.40;99.90;;;;;;4978664;28;20038;-85
2022/12/20 13:10:07;;;;;;;14.48;4.78;;;11.40;99.90;;;;;;4969764;28;20067;-86
2022/12/20 13:12:39;;;;;;;8.35;4.85;;;11.40;99.90;;;;;;4977222;28;20535;-85
2022/12/20 13:15:20;;;;;;;7.00;4.63;;;11.40;99.90;;;;;;4973262;28;20038;-84
2022/12/20 13:17:50;;;;;;;11.05;4.68;;;11.40;99.90;;;;;;4976789;28;20123;-85
2022/12/20 13:20:26;;;;;;;10.70;6.00;;;11.40;99.90;;;;;;4976825;28;20031;-84
2022/12/20 13:23:06;;;;;;;12.48;5.80;;;11.40;99.90;;;;;;4976530;28;20476;-84